Terminal Aerodrome Forecast
Issued by NWS

Home | Current Version | Previous Version | Graphics & Text | Print | Product List | Glossary On
Versions: 1 2 3 4 5 6 7 8 9 10 11 12 13 14 15 16 17 18 19 20
000
FTUS43 KICT 291123
TAFRSL
TAF
KRSL 291123Z 2912/3012 35020G28KT P6SM BKN025
     FM291800 35019G27KT P6SM SCT250
     FM292200 35010KT P6SM SCT250
     FM300100 35005KT P6SM SKC=

USA.gov is the U.S. government's official web portal to all federal, state and local government web resources and services.